Terminal Aerodrome Forecast
Issued by NWS

Home | Current Version | Previous Version | Text Only | Print | Product List | Glossary On
Versions: 1 2 3 4 5 6 7 8 9 10 11 12 13 14 15
000
FTUS45 KTFX 221740
TAFBZN
TAF
KBZN 221740Z 2218/2324 VRB05KT P6SM SCT050 SCT120
     FM222100 VRB05KT P6SM VCSH SCT050 BKN100
      TEMPO 2300/2303 -SHRA BKN050
     FM230300 07005KT P6SM SCT050 BKN100
     FM231200 02005KT P6SM VCSH BKN040 OVC060
     FM231600 33005KT P6SM -SHRA OVC040 PROB30 2320/2324 6SM -TSRA
      BKN035CB OVC040=

USA.gov is the U.S. government's official web portal to all federal, state and local government web resources and services.